Time;durP1;ratioP1;P1;durP2;ratioP2;P2;SDS_P1;SDS_P2;PMS_P1;PMS_P2;Temp;Humidity;BMP_temperature;BMP_pressure;BME280_temperature;BME280_humidity;BME280_pressure;Samples;Min_cycle;Max_cycle;Signal;HPM_P1;HPM_P2
2022/05/28 00:00:35;;;;;;;4.63;2.03;;;17.60;67.20;;;;;;2004838;28;20201;-71
2022/05/28 00:01:34;;;;;;;5.60;2.53;;;17.60;67.10;;;;;;2004876;28;20264;-70
2022/05/28 00:02:33;;;;;;;14.30;3.13;;;17.60;67.10;;;;;;2004997;28;20432;-71
2022/05/28 00:03:32;;;;;;;9.43;3.13;;;17.60;67.10;;;;;;2005035;28;20600;-70
2022/05/28 00:04:31;;;;;;;5.18;2.05;;;17.60;67.10;;;;;;2004874;28;20200;-70
2022/05/28 00:05:29;;;;;;;7.57;2.40;;;17.60;67.00;;;;;;2004849;28;20184;-71
2022/05/28 00:06:31;;;;;;;7.93;2.60;;;17.60;67.00;;;;;;2004900;28;20204;-72
2022/05/28 00:07:30;;;;;;;7.22;2.58;;;17.60;67.00;;;;;;2004808;28;20173;-71
2022/05/28 00:08:28;;;;;;;7.60;2.90;;;17.60;67.10;;;;;;2004873;28;20177;-71
2022/05/28 00:09:27;;;;;;;6.93;2.20;;;17.60;67.00;;;;;;2004862;28;20189;-71
2022/05/28 00:10:26;;;;;;;4.30;2.10;;;17.60;67.10;;;;;;2004101;28;20203;-72
2022/05/28 00:11:36;;;;;;;7.90;2.45;;;17.60;67.10;;;;;;2004230;28;20177;-72
2022/05/28 00:12:35;;;;;;;5.68;2.20;;;17.60;67.20;;;;;;2004982;28;20200;-71
2022/05/28 00:13:33;;;;;;;7.90;2.80;;;17.60;67.20;;;;;;2004784;28;20556;-71
2022/05/28 00:14:32;;;;;;;5.43;2.30;;;17.60;67.20;;;;;;2004864;28;20175;-72
2022/05/28 00:15:31;;;;;;;7.40;2.70;;;17.60;67.10;;;;;;2004182;28;20565;-71
2022/05/28 00:16:29;;;;;;;6.40;2.53;;;17.60;67.10;;;;;;2004335;28;20169;-72
2022/05/28 00:17:28;;;;;;;5.70;2.40;;;17.60;67.20;;;;;;2004703;28;20655;-71
2022/05/28 00:18:28;;;;;;;7.03;2.40;;;17.60;67.00;;;;;;2004833;28;20165;-71
2022/05/28 00:19:26;;;;;;;11.00;3.33;;;17.60;66.90;;;;;;2004800;28;20173;-72
2022/05/28 00:20:26;;;;;;;8.07;2.20;;;17.60;67.70;;;;;;2004789;28;20193;-71
2022/05/28 00:21:27;;;;;;;7.88;2.58;;;17.60;66.90;;;;;;2004778;28;20583;-72
2022/05/28 00:22:26;;;;;;;9.75;2.30;;;17.60;67.00;;;;;;2004737;28;20184;-72
2022/05/28 00:23:24;;;;;;;4.70;2.20;;;17.60;67.00;;;;;;2004028;28;20199;-71
2022/05/28 00:24:23;;;;;;;7.60;2.70;;;17.60;66.80;;;;;;1996304;28;20528;-71
2022/05/28 00:25:21;;;;;;;9.20;2.90;;;17.60;66.80;;;;;;2003749;28;20517;-70
2022/05/28 00:26:20;;;;;;;9.40;3.30;;;17.60;66.80;;;;;;2004634;28;20203;-70
2022/05/28 00:27:19;;;;;;;6.90;2.13;;;17.60;66.80;;;;;;2004668;28;20705;-71
2022/05/28 00:28:21;;;;;;;8.33;2.70;;;17.60;66.60;;;;;;2004678;28;20192;-71
2022/05/28 00:29:19;;;;;;;6.35;2.35;;;17.60;66.60;;;;;;2004673;28;20173;-71
2022/05/28 00:30:18;;;;;;;6.47;2.47;;;17.60;66.80;;;;;;2004630;28;20208;-71
2022/05/28 00:31:16;;;;;;;9.87;2.47;;;17.60;66.70;;;;;;2004647;28;20603;-71
2022/05/28 00:32:15;;;;;;;9.90;3.17;;;17.60;66.60;;;;;;2003786;28;20173;-70
2022/05/28 00:33:14;;;;;;;8.80;2.40;;;17.60;66.50;;;;;;2003723;28;20483;-70
2022/05/28 00:34:12;;;;;;;5.87;2.50;;;17.60;66.60;;;;;;2004094;28;20165;-71
2022/05/28 00:35:13;;;;;;;4.33;1.80;;;17.60;66.60;;;;;;2004620;28;20177;-71
2022/05/28 00:36:14;;;;;;;9.63;2.40;;;17.60;66.60;;;;;;2004602;28;20177;-70
2022/05/28 00:37:13;;;;;;;13.50;2.65;;;17.60;66.50;;;;;;2004629;28;20236;-71
2022/05/28 00:38:11;;;;;;;9.70;2.63;;;17.60;66.60;;;;;;2004591;28;20621;-70
2022/05/28 00:39:10;;;;;;;7.57;2.67;;;17.60;66.50;;;;;;2004620;28;20184;-71
2022/05/28 00:40:21;;;;;;;5.43;2.30;;;17.60;66.50;;;;;;2004717;28;20534;-71
2022/05/28 00:41:20;;;;;;;3.45;1.80;;;17.60;66.40;;;;;;2004706;28;20208;-71
2022/05/28 00:42:18;;;;;;;7.20;2.80;;;17.60;66.50;;;;;;2003844;28;20188;-71
2022/05/28 00:43:17;;;;;;;6.77;2.27;;;17.60;66.50;;;;;;2004017;28;20209;-71
2022/05/28 00:44:16;;;;;;;7.10;2.43;;;17.60;66.50;;;;;;2004575;28;20189;-71
2022/05/28 00:45:16;;;;;;;5.90;1.95;;;17.60;66.50;;;;;;2004565;28;20309;-70
2022/05/28 00:46:24;;;;;;;6.40;2.35;;;17.60;66.50;;;;;;2004506;28;20221;-71
2022/05/28 00:47:24;;;;;;;5.95;2.03;;;17.60;66.50;;;;;;2004484;28;20256;-72
2022/05/28 00:48:29;;;;;;;8.00;2.47;;;17.60;66.40;;;;;;2004848;28;20256;-72
2022/05/28 00:49:31;;;;;;;5.57;2.40;;;17.60;67.10;;;;;;2004702;28;20600;-71
2022/05/28 00:50:30;;;;;;;7.25;2.60;;;17.60;66.50;;;;;;2004604;28;20212;-71
2022/05/28 00:51:33;;;;;;;6.93;2.85;;;17.60;66.50;;;;;;2004476;28;20211;-71
2022/05/28 00:52:33;;;;;;;6.07;2.08;;;17.60;66.50;;;;;;2004812;28;20240;-71
2022/05/28 00:53:33;;;;;;;6.07;2.22;;;17.60;66.60;;;;;;2004687;28;20608;-72
2022/05/28 00:54:44;;;;;;;4.18;1.80;;;17.50;66.40;;;;;;2004600;28;20256;-71
2022/05/28 00:55:43;;;;;;;4.00;1.80;;;17.60;67.30;;;;;;2004681;28;20158;-71
2022/05/28 00:56:42;;;;;;;10.07;2.10;;;17.50;66.50;;;;;;2004564;28;20184;-71
2022/05/28 00:57:42;;;;;;;6.88;2.30;;;17.50;66.40;;;;;;2004585;28;20502;-72
2022/05/28 00:58:41;;;;;;;4.80;1.83;;;17.50;66.50;;;;;;2004610;28;20212;-71
2022/05/28 00:59:39;;;;;;;6.70;2.27;;;17.50;66.40;;;;;;2004407;28;20556;-71
2022/05/28 01:00:38;;;;;;;7.00;2.43;;;17.50;66.40;;;;;;2004478;28;20196;-71
2022/05/28 01:01:43;;;;;;;7.80;2.00;;;17.50;66.40;;;;;;2003887;28;20204;-71
2022/05/28 01:02:51;;;;;;;6.15;2.08;;;17.50;66.40;;;;;;2004021;28;20872;-71
2022/05/28 01:04:17;;;;;;;5.80;2.90;;;17.50;66.30;;;;;;2004492;28;20168;-72
2022/05/28 01:05:42;;;;;;;10.32;2.20;;;17.50;66.40;;;;;;2004622;28;20528;-72
2022/05/28 01:06:50;;;;;;;5.25;2.38;;;17.50;66.30;;;;;;2004010;28;20189;-71
2022/05/28 01:08:14;;;;;;;4.40;2.05;;;17.50;66.10;;;;;;2003954;28;20165;-72
2022/05/28 01:09:44;;;;;;;6.40;2.25;;;17.50;66.10;;;;;;2004635;28;20162;-71
2022/05/28 01:10:57;;;;;;;4.57;2.22;;;17.50;66.20;;;;;;2004470;28;20185;-71
2022/05/28 01:12:10;;;;;;;6.93;2.20;;;17.50;66.00;;;;;;2004397;28;20208;-71
2022/05/28 01:13:18;;;;;;;7.25;2.40;;;17.50;65.90;;;;;;2003757;28;20181;-71
2022/05/28 01:14:41;;;;;;;5.00;1.75;;;17.50;65.90;;;;;;2004529;28;20177;-71
2022/05/28 01:15:46;;;;;;;4.75;1.73;;;17.50;66.00;;;;;;2009240;28;20608;-71
2022/05/28 01:16:55;;;;;;;5.72;2.30;;;17.50;65.80;;;;;;2004455;28;20174;-71
2022/05/28 01:18:06;;;;;;;5.32;1.92;;;17.50;65.90;;;;;;2004469;28;20706;-71
2022/05/28 01:19:38;;;;;;;3.53;1.75;;;17.50;65.80;;;;;;2004563;28;20173;-71
2022/05/28 01:20:45;;;;;;;4.43;1.70;;;17.50;66.00;;;;;;2003674;28;20193;-72
2022/05/28 01:22:13;;;;;;;4.05;2.10;;;17.50;65.90;;;;;;2003801;28;20201;-72
2022/05/28 01:23:20;;;;;;;4.43;2.00;;;17.50;65.90;;;;;;2004406;28;20157;-72
2022/05/28 01:24:32;;;;;;;5.93;2.22;;;17.50;65.80;;;;;;2004442;28;20161;-72
2022/05/28 01:26:00;;;;;;;4.72;1.60;;;17.50;65.80;;;;;;2004422;28;20230;-72
2022/05/28 01:27:03;;;;;;;4.82;1.98;;;17.50;65.80;;;;;;2004325;28;20216;-71
2022/05/28 01:28:06;;;;;;;4.95;1.90;;;17.50;65.80;;;;;;2004448;28;20173;-71
2022/05/28 01:29:09;;;;;;;5.78;2.15;;;17.50;65.80;;;;;;2004515;28;20158;-71
2022/05/28 01:30:11;;;;;;;4.28;2.00;;;17.50;65.80;;;;;;2004302;28;20177;-72
2022/05/28 01:31:12;;;;;;;4.75;1.95;;;17.50;65.80;;;;;;2004279;28;20173;-72
2022/05/28 01:32:12;;;;;;;6.40;2.08;;;17.50;65.80;;;;;;2004249;28;20170;-72
2022/05/28 01:33:14;;;;;;;6.13;2.03;;;17.50;65.70;;;;;;2004124;28;20260;-72
2022/05/28 01:34:15;;;;;;;4.88;1.90;;;17.50;65.70;;;;;;2004286;28;20173;-71
2022/05/28 01:35:16;;;;;;;5.28;1.90;;;17.50;65.70;;;;;;2004249;28;20169;-72
2022/05/28 01:36:17;;;;;;;5.63;2.40;;;17.50;65.70;;;;;;2004372;28;20171;-72
2022/05/28 01:37:18;;;;;;;3.90;1.58;;;17.50;65.70;;;;;;2004384;28;20166;-71
2022/05/28 01:38:18;;;;;;;4.15;1.85;;;17.50;65.80;;;;;;2004292;28;20176;-72
2022/05/28 01:39:18;;;;;;;5.07;1.75;;;17.50;65.70;;;;;;2004473;28;20188;-72
2022/05/28 01:40:21;;;;;;;6.15;1.80;;;17.50;65.60;;;;;;2004278;28;20183;-72
2022/05/28 01:41:20;;;;;;;6.30;2.10;;;17.50;65.70;;;;;;2004413;28;20502;-72
2022/05/28 01:42:19;;;;;;;8.45;2.00;;;17.50;65.60;;;;;;2004218;28;20203;-72
2022/05/28 01:43:20;;;;;;;3.70;1.63;;;17.50;65.60;;;;;;2004274;28;20549;-72
2022/05/28 01:44:21;;;;;;;5.55;2.05;;;17.50;65.50;;;;;;2004209;28;20272;-71
2022/05/28 01:45:23;;;;;;;4.97;1.77;;;17.50;65.50;;;;;;2003971;28;20195;-72
2022/05/28 01:46:23;;;;;;;6.00;2.45;;;17.50;65.50;;;;;;2004239;28;20173;-72
2022/05/28 01:47:23;;;;;;;4.00;2.17;;;17.50;65.60;;;;;;2004440;28;20203;-72
2022/05/28 01:48:24;;;;;;;3.20;1.77;;;17.50;65.60;;;;;;2004232;28;20177;-72
2022/05/28 01:49:23;;;;;;;4.07;1.90;;;17.50;65.50;;;;;;2004381;28;20173;-71
2022/05/28 01:50:25;;;;;;;4.05;1.98;;;17.50;65.50;;;;;;2004201;28;20256;-71
2022/05/28 01:51:29;;;;;;;4.95;2.13;;;17.50;65.40;;;;;;2004348;28;20173;-72
2022/05/28 01:52:30;;;;;;;4.00;1.60;;;17.50;65.40;;;;;;2004341;28;20169;-72
2022/05/28 01:54:49;;;;;;;3.08;2.00;;;17.50;65.40;;;;;;2004281;28;20192;-72
2022/05/28 01:55:49;;;;;;;4.85;1.90;;;17.50;65.40;;;;;;2004248;28;20161;-72
2022/05/28 01:56:50;;;;;;;4.75;2.30;;;17.50;65.30;;;;;;2004207;28;20187;-71
2022/05/28 01:57:50;;;;;;;4.32;1.70;;;17.50;65.40;;;;;;2004112;28;20166;-72
2022/05/28 01:58:49;;;;;;;6.47;2.00;;;17.50;65.40;;;;;;2004311;28;20643;-72
2022/05/28 01:59:48;;;;;;;5.83;2.10;;;17.50;65.50;;;;;;2004232;28;20209;-71
2022/05/28 02:00:46;;;;;;;3.20;1.80;;;17.40;65.30;;;;;;2004072;28;20428;-71
2022/05/28 02:01:45;;;;;;;5.97;1.90;;;17.40;65.30;;;;;;2003521;28;20173;-72
2022/05/28 02:02:44;;;;;;;3.03;1.63;;;17.50;65.40;;;;;;2003701;28;20584;-72
2022/05/28 02:03:46;;;;;;;3.13;1.97;;;17.50;65.40;;;;;;2004288;28;20515;-72
2022/05/28 02:04:47;;;;;;;3.13;1.80;;;17.40;65.40;;;;;;2004214;28;20177;-71
2022/05/28 02:05:46;;;;;;;4.00;1.73;;;17.50;66.10;;;;;;2004309;28;20200;-72
2022/05/28 02:06:44;;;;;;;4.38;1.70;;;17.50;65.40;;;;;;2004152;28;20566;-72
2022/05/28 02:07:43;;;;;;;3.53;1.90;;;17.40;65.30;;;;;;2004192;28;20268;-72
2022/05/28 02:08:44;;;;;;;4.33;2.17;;;17.50;65.40;;;;;;2003546;28;20181;-72
2022/05/28 02:09:52;;;;;;;6.13;2.25;;;17.50;65.40;;;;;;2003652;28;20244;-72
2022/05/28 02:11:07;;;;;;;4.47;1.65;;;17.50;65.40;;;;;;2004224;28;20597;-72
2022/05/28 02:12:25;;;;;;;3.25;1.58;;;17.50;65.40;;;;;;2004237;28;20583;-72
2022/05/28 02:13:29;;;;;;;4.38;2.08;;;17.40;65.30;;;;;;2004078;28;20227;-72
2022/05/28 02:14:41;;;;;;;3.85;1.73;;;17.40;65.30;;;;;;2004249;28;20157;-72
2022/05/28 02:15:53;;;;;;;5.22;1.95;;;17.50;65.30;;;;;;2004111;28;20352;-72
2022/05/28 02:17:11;;;;;;;6.10;2.03;;;17.50;65.40;;;;;;2004338;28;20154;-71
2022/05/28 02:18:31;;;;;;;2.88;1.70;;;17.40;65.30;;;;;;2004112;28;20153;-72
2022/05/28 02:19:50;;;;;;;2.90;1.55;;;17.40;65.30;;;;;;2004262;28;20157;-72
2022/05/28 02:21:03;;;;;;;3.03;1.40;;;17.40;65.30;;;;;;2004082;28;20189;-71
2022/05/28 02:22:10;;;;;;;3.05;1.70;;;17.40;65.30;;;;;;2004213;28;20153;-71
2022/05/28 02:23:18;;;;;;;3.30;1.60;;;17.40;65.30;;;;;;2004174;28;20608;-72
2022/05/28 02:24:25;;;;;;;3.33;1.63;;;17.40;65.30;;;;;;2004109;28;20215;-72
2022/05/28 02:25:58;;;;;;;7.60;1.90;;;17.40;65.30;;;;;;2004236;28;20224;-72
2022/05/28 02:27:05;;;;;;;4.40;1.60;;;17.40;65.30;;;;;;2004161;28;20180;-71
2022/05/28 02:28:06;;;;;;;5.15;1.48;;;17.40;65.30;;;;;;2004193;28;20161;-72
2022/05/28 02:29:06;;;;;;;2.55;1.17;;;17.40;65.20;;;;;;2004066;28;20248;-72
2022/05/28 02:30:06;;;;;;;3.40;1.35;;;17.40;65.30;;;;;;2004133;28;20597;-72
2022/05/28 02:31:16;;;;;;;4.55;1.90;;;17.40;65.30;;;;;;2004161;28;20196;-72
2022/05/28 02:32:21;;;;;;;2.88;1.17;;;17.40;65.30;;;;;;2003943;28;20162;-72
2022/05/28 02:33:20;;;;;;;3.13;1.52;;;17.40;65.30;;;;;;2004206;28;20243;-72
2022/05/28 02:34:20;;;;;;;3.95;2.22;;;17.40;65.30;;;;;;2003988;28;20188;-72
2022/05/28 02:35:18;;;;;;;3.20;1.80;;;17.40;65.30;;;;;;2004206;28;20532;-71
2022/05/28 02:36:17;;;;;;;1.87;1.30;;;17.40;65.30;;;;;;2004190;28;20264;-73
2022/05/28 02:37:21;;;;;;;2.83;1.40;;;17.40;65.30;;;;;;2004075;28;20185;-72
2022/05/28 02:38:20;;;;;;;3.50;1.60;;;17.40;65.30;;;;;;2004187;28;20257;-72
2022/05/28 02:39:19;;;;;;;3.78;1.50;;;17.40;65.20;;;;;;2004119;28;20180;-72
2022/05/28 02:40:17;;;;;;;4.37;2.17;;;17.40;65.30;;;;;;2004040;28;20532;-72
2022/05/28 02:41:16;;;;;;;4.30;1.70;;;17.40;65.30;;;;;;2004104;28;20233;-72
2022/05/28 02:42:15;;;;;;;5.80;1.87;;;17.40;65.30;;;;;;2004152;28;20169;-72
2022/05/28 02:43:14;;;;;;;5.20;1.45;;;17.40;65.30;;;;;;2004159;28;20173;-71
2022/05/28 02:44:13;;;;;;;3.63;1.50;;;17.40;65.20;;;;;;2004057;28;20177;-72
2022/05/28 02:45:11;;;;;;;3.42;1.88;;;17.40;65.10;;;;;;2003334;28;20257;-72
2022/05/28 02:46:10;;;;;;;3.80;1.77;;;17.40;65.10;;;;;;2003418;28;20196;-72
2022/05/28 02:47:09;;;;;;;4.40;1.50;;;17.40;65.90;;;;;;2003955;28;20165;-72
2022/05/28 02:48:08;;;;;;;3.97;1.70;;;17.40;65.10;;;;;;2004132;28;20740;-72
2022/05/28 02:49:07;;;;;;;3.10;1.43;;;17.40;65.80;;;;;;2004012;28;20624;-72
2022/05/28 02:50:08;;;;;;;3.10;1.30;;;17.40;65.10;;;;;;2004029;28;20524;-72
2022/05/28 02:51:12;;;;;;;1.90;1.52;;;17.40;65.10;;;;;;2004050;28;20185;-71
2022/05/28 02:52:10;;;;;;;2.40;1.20;;;17.40;65.00;;;;;;2004058;28;20312;-71
2022/05/28 02:53:13;;;;;;;3.63;1.50;;;17.40;65.00;;;;;;2004086;28;20226;-72
2022/05/28 02:54:11;;;;;;;2.60;1.60;;;17.40;65.00;;;;;;2003977;28;20180;-72
2022/05/28 02:55:10;;;;;;;6.47;2.17;;;17.40;65.10;;;;;;2004041;28;20184;-72
2022/05/28 02:56:10;;;;;;;2.73;1.50;;;17.40;65.00;;;;;;2004107;28;20569;-71
2022/05/28 02:57:08;;;;;;;2.65;1.45;;;17.40;65.00;;;;;;2004683;28;20640;-72
2022/05/28 02:58:07;;;;;;;2.10;1.23;;;17.40;65.00;;;;;;2005304;28;20213;-72
2022/05/28 02:59:05;;;;;;;3.77;1.40;;;17.40;65.10;;;;;;2005337;28;20165;-72
2022/05/28 03:00:06;;;;;;;3.60;1.77;;;17.40;65.20;;;;;;2005287;28;20173;-72
2022/05/28 03:01:26;;;;;;;4.13;1.52;;;17.40;65.10;;;;;;2005355;28;20177;-72
2022/05/28 03:02:27;;;;;;;2.40;1.25;;;17.40;65.10;;;;;;2005430;28;20173;-72
2022/05/28 03:03:26;;;;;;;4.95;1.80;;;17.40;65.00;;;;;;2005299;28;20255;-71
2022/05/28 03:04:25;;;;;;;4.20;1.70;;;17.40;65.00;;;;;;2005415;28;20173;-72
2022/05/28 03:05:24;;;;;;;2.30;1.30;;;17.40;65.00;;;;;;2004603;28;20239;-72
2022/05/28 03:06:23;;;;;;;5.72;1.38;;;17.40;65.00;;;;;;2004623;28;20265;-72
2022/05/28 03:07:22;;;;;;;4.53;1.87;;;17.40;65.00;;;;;;2005479;28;20185;-72
2022/05/28 03:08:20;;;;;;;3.23;1.50;;;17.40;65.10;;;;;;2005292;28;20181;-71
2022/05/28 03:09:19;;;;;;;4.83;1.43;;;17.40;65.00;;;;;;2005270;28;20188;-72
2022/05/28 03:10:18;;;;;;;3.60;1.70;;;17.40;65.00;;;;;;2005139;28;20544;-72
2022/05/28 03:11:17;;;;;;;1.90;1.33;;;17.40;65.00;;;;;;2005281;28;20173;-72
2022/05/28 03:12:15;;;;;;;5.00;1.60;;;17.40;65.00;;;;;;2004490;28;20424;-72
2022/05/28 03:13:14;;;;;;;2.17;1.30;;;17.40;64.90;;;;;;2004649;28;20181;-72
2022/05/28 03:14:12;;;;;;;2.17;1.50;;;17.40;65.00;;;;;;2005224;28;20530;-72
2022/05/28 03:15:11;;;;;;;2.47;1.47;;;17.40;65.00;;;;;;2005246;28;20195;-72
2022/05/28 03:16:10;;;;;;;2.40;1.40;;;17.40;65.00;;;;;;2005253;28;20173;-72
2022/05/28 03:17:09;;;;;;;3.45;1.77;;;17.40;65.00;;;;;;2005165;28;20180;-71
2022/05/28 03:18:08;;;;;;;3.70;1.70;;;17.40;65.00;;;;;;2005219;28;20671;-72
2022/05/28 03:19:06;;;;;;;3.03;1.20;;;17.40;64.90;;;;;;2004511;28;20651;-72
2022/05/28 03:20:06;;;;;;;3.17;1.60;;;17.40;65.00;;;;;;2004675;28;20259;-72
2022/05/28 03:21:06;;;;;;;3.53;1.65;;;17.40;65.00;;;;;;2005089;28;20181;-72
2022/05/28 03:22:04;;;;;;;3.15;1.60;;;17.40;65.70;;;;;;2005114;28;20180;-72
2022/05/28 03:23:03;;;;;;;3.23;1.50;;;17.40;65.00;;;;;;2005077;28;20520;-72
2022/05/28 03:24:01;;;;;;;2.40;1.40;;;17.40;65.00;;;;;;2005234;28;20180;-72
2022/05/28 03:25:00;;;;;;;3.73;1.73;;;17.40;65.00;;;;;;2005101;28;20200;-71
2022/05/28 03:26:10;;;;;;;4.00;1.80;;;17.40;65.00;;;;;;2004391;28;20177;-72
2022/05/28 03:27:09;;;;;;;6.35;2.13;;;17.40;65.00;;;;;;2004650;28;20164;-72
2022/05/28 03:28:08;;;;;;;3.60;1.57;;;17.40;65.00;;;;;;2005079;28;20173;-71
2022/05/28 03:29:07;;;;;;;2.70;1.20;;;17.40;65.00;;;;;;2005088;28;20404;-72
2022/05/28 03:30:06;;;;;;;3.27;1.60;;;17.40;65.00;;;;;;2005118;28;20219;-72
2022/05/28 03:31:04;;;;;;;2.30;1.40;;;17.40;65.00;;;;;;2005108;28;20211;-72
2022/05/28 03:32:03;;;;;;;6.20;1.80;;;17.40;65.00;;;;;;2005121;28;20184;-72
2022/05/28 03:33:02;;;;;;;2.80;1.80;;;17.40;65.00;;;;;;2004841;28;20221;-72
2022/05/28 03:34:01;;;;;;;3.85;1.70;;;17.40;64.90;;;;;;2004918;28;20459;-72
2022/05/28 03:34:59;;;;;;;5.20;1.40;;;17.40;65.00;;;;;;2004959;28;20525;-71
2022/05/28 03:35:58;;;;;;;3.37;1.60;;;17.40;65.00;;;;;;2005005;28;20169;-71
2022/05/28 03:36:57;;;;;;;3.53;1.57;;;17.40;65.00;;;;;;2005072;28;20535;-72
2022/05/28 03:37:56;;;;;;;2.42;1.35;;;17.40;65.00;;;;;;2004964;28;20235;-72
2022/05/28 03:38:55;;;;;;;5.90;1.60;;;17.40;65.60;;;;;;2005035;28;20185;-72
2022/05/28 03:39:54;;;;;;;2.72;1.98;;;17.40;64.90;;;;;;2004423;28;20655;-72
2022/05/28 03:40:52;;;;;;;3.00;1.70;;;17.40;65.00;;;;;;2004301;28;20201;-72
2022/05/28 03:41:51;;;;;;;2.90;1.60;;;17.40;65.00;;;;;;2004994;28;20176;-72
2022/05/28 03:42:49;;;;;;;4.50;1.77;;;17.40;65.00;;;;;;2005036;28;20165;-72
2022/05/28 03:43:48;;;;;;;2.50;1.40;;;17.40;65.00;;;;;;2004932;28;20260;-72
2022/05/28 03:44:47;;;;;;;2.47;1.40;;;17.40;65.00;;;;;;2004968;28;20238;-72
2022/05/28 03:45:45;;;;;;;3.83;1.80;;;17.40;65.00;;;;;;2004958;28;20722;-71
2022/05/28 03:46:44;;;;;;;3.13;1.57;;;17.40;64.90;;;;;;2004988;28;20181;-71
2022/05/28 03:47:42;;;;;;;4.23;1.80;;;17.40;65.00;;;;;;2005162;28;20222;-72
2022/05/28 03:48:41;;;;;;;6.47;1.60;;;17.40;65.00;;;;;;2005059;28;20585;-72
2022/05/28 03:49:41;;;;;;;5.03;1.90;;;17.40;65.00;;;;;;2004974;28;20169;-72
2022/05/28 03:50:40;;;;;;;3.35;1.90;;;17.40;65.00;;;;;;2004967;28;20962;-72
2022/05/28 03:51:39;;;;;;;4.37;2.30;;;17.40;65.00;;;;;;2004949;28;20312;-72
2022/05/28 03:52:37;;;;;;;3.50;1.80;;;17.40;65.00;;;;;;2004959;28;20211;-72
2022/05/28 03:53:36;;;;;;;2.40;1.50;;;17.40;64.90;;;;;;2004978;28;20212;-72
2022/05/28 03:54:35;;;;;;;4.23;1.70;;;17.40;65.00;;;;;;2004913;28;20184;-72
2022/05/28 03:55:33;;;;;;;4.17;1.97;;;17.40;64.90;;;;;;2004897;28;20264;-72
2022/05/28 03:56:36;;;;;;;2.40;1.20;;;17.40;64.90;;;;;;2004847;28;20440;-72
2022/05/28 03:57:35;;;;;;;3.10;1.60;;;17.40;64.90;;;;;;2004933;28;20272;-72
2022/05/28 03:58:33;;;;;;;3.93;1.73;;;17.40;64.90;;;;;;2004888;28;20177;-72
2022/05/28 03:59:34;;;;;;;4.23;1.60;;;17.40;64.90;;;;;;2004846;28;20248;-72
2022/05/28 04:00:35;;;;;;;3.30;1.60;;;17.40;64.90;;;;;;2004789;28;20597;-72
2022/05/28 04:01:34;;;;;;;4.80;1.98;;;17.40;64.90;;;;;;2004821;28;20181;-72
2022/05/28 04:02:33;;;;;;;5.20;1.52;;;17.40;64.90;;;;;;2004842;28;20169;-71
2022/05/28 04:03:31;;;;;;;4.63;1.73;;;17.40;64.90;;;;;;2004861;28;20486;-72
2022/05/28 04:04:31;;;;;;;5.60;2.13;;;17.40;64.90;;;;;;2004797;28;20177;-72
2022/05/28 04:05:30;;;;;;;5.13;2.00;;;17.40;64.90;;;;;;2004751;28;20177;-72
2022/05/28 04:06:29;;;;;;;4.07;1.58;;;17.40;64.90;;;;;;2004156;28;20203;-72
2022/05/28 04:07:27;;;;;;;4.73;1.80;;;17.40;64.90;;;;;;2004298;28;20183;-72
2022/05/28 04:08:26;;;;;;;3.73;1.77;;;17.40;64.80;;;;;;2004663;28;20466;-72
2022/05/28 04:09:24;;;;;;;3.07;1.23;;;17.40;64.90;;;;;;2004817;28;20189;-72
2022/05/28 04:10:24;;;;;;;7.17;1.73;;;17.40;64.80;;;;;;2004779;28;20220;-72
2022/05/28 04:11:22;;;;;;;5.60;1.88;;;17.40;64.80;;;;;;2004066;28;20194;-72
2022/05/28 04:12:21;;;;;;;5.43;2.00;;;17.40;64.80;;;;;;2004249;28;20192;-72
2022/05/28 04:13:20;;;;;;;6.10;1.70;;;17.40;64.90;;;;;;2004708;28;20276;-72
2022/05/28 04:14:19;;;;;;;4.40;1.53;;;17.40;64.80;;;;;;2004913;28;20185;-71
2022/05/28 04:15:17;;;;;;;6.00;1.90;;;17.40;64.80;;;;;;2004803;28;20871;-71
2022/05/28 04:16:16;;;;;;;4.50;1.63;;;17.40;64.80;;;;;;2004889;28;20201;-72
2022/05/28 04:17:15;;;;;;;4.10;1.70;;;17.40;64.90;;;;;;2004736;28;20174;-71
2022/05/28 04:18:14;;;;;;;3.03;1.30;;;17.40;64.90;;;;;;2004717;28;20180;-71
2022/05/28 04:19:13;;;;;;;3.45;1.73;;;17.40;64.80;;;;;;2004787;28;20183;-71
2022/05/28 04:20:13;;;;;;;3.47;1.63;;;17.40;64.90;;;;;;2004660;28;20173;-72
2022/05/28 04:21:11;;;;;;;3.92;1.65;;;17.40;64.80;;;;;;2004827;28;20169;-71
2022/05/28 04:22:10;;;;;;;3.37;1.53;;;17.40;64.90;;;;;;2004782;28;20581;-72
2022/05/28 04:23:09;;;;;;;3.67;1.90;;;17.40;64.90;;;;;;2004721;28;20260;-71
2022/05/28 04:24:07;;;;;;;3.50;1.87;;;17.40;64.90;;;;;;2004655;28;20177;-71
2022/05/28 04:25:07;;;;;;;4.40;1.97;;;17.40;64.90;;;;;;2004782;28;20172;-71
2022/05/28 04:26:05;;;;;;;3.83;1.48;;;17.40;64.90;;;;;;2004829;28;20260;-71
2022/05/28 04:27:04;;;;;;;5.10;2.03;;;17.40;64.90;;;;;;2004828;28;20249;-71
2022/05/28 04:28:03;;;;;;;5.40;1.77;;;17.40;64.90;;;;;;2004704;28;20176;-72
2022/05/28 04:29:02;;;;;;;4.17;1.60;;;17.40;64.90;;;;;;2004724;28;20635;-72
2022/05/28 04:30:02;;;;;;;3.87;1.80;;;17.40;64.80;;;;;;2004784;28;20412;-71
2022/05/28 04:31:00;;;;;;;3.03;1.80;;;17.40;64.80;;;;;;2004599;28;20659;-71
2022/05/28 04:31:59;;;;;;;4.13;1.50;;;17.40;64.80;;;;;;2004649;28;20184;-72
2022/05/28 04:32:58;;;;;;;9.20;2.00;;;17.40;64.90;;;;;;2004466;28;20271;-71
2022/05/28 04:33:57;;;;;;;2.20;1.42;;;17.40;64.80;;;;;;2004608;28;20227;-72
2022/05/28 04:34:56;;;;;;;4.97;2.70;;;17.40;64.80;;;;;;2004628;28;20212;-72
2022/05/28 04:35:55;;;;;;;4.80;1.60;;;17.40;64.80;;;;;;2004736;28;20165;-71
2022/05/28 04:36:53;;;;;;;3.53;2.00;;;17.40;64.80;;;;;;2004731;28;20197;-71
2022/05/28 04:37:52;;;;;;;2.40;1.47;;;17.50;64.90;;;;;;2004710;28;20193;-72
2022/05/28 04:38:50;;;;;;;6.60;2.27;;;17.50;64.90;;;;;;2003944;28;20367;-71
2022/05/28 04:39:49;;;;;;;4.90;1.63;;;17.40;64.80;;;;;;2004095;28;20268;-71
2022/05/28 04:40:48;;;;;;;3.77;1.50;;;17.40;64.80;;;;;;2004470;28;20605;-71
2022/05/28 04:41:46;;;;;;;5.43;2.03;;;17.40;64.80;;;;;;2004622;28;20166;-71
2022/05/28 04:42:45;;;;;;;4.27;1.50;;;17.40;64.80;;;;;;2004668;28;20173;-71
2022/05/28 04:43:43;;;;;;;2.77;1.60;;;17.40;64.80;;;;;;2004542;28;20181;-72
2022/05/28 04:44:42;;;;;;;4.27;1.90;;;17.40;64.80;;;;;;2004582;28;20259;-72
2022/05/28 04:45:40;;;;;;;3.37;1.53;;;17.50;64.90;;;;;;2004632;28;20478;-71
2022/05/28 04:46:39;;;;;;;2.73;1.70;;;17.40;64.80;;;;;;2003880;28;20183;-72
2022/05/28 04:47:37;;;;;;;3.77;1.60;;;17.40;64.80;;;;;;2003972;28;20239;-71
2022/05/28 04:48:36;;;;;;;3.13;1.50;;;17.40;64.80;;;;;;2004452;28;20244;-71
2022/05/28 04:49:35;;;;;;;3.90;1.77;;;17.40;64.80;;;;;;2004587;28;20534;-72
2022/05/28 04:50:33;;;;;;;4.10;1.63;;;17.40;64.80;;;;;;2004464;28;20267;-71
2022/05/28 04:51:32;;;;;;;5.57;1.97;;;17.40;64.80;;;;;;2004625;28;20187;-72
2022/05/28 04:52:31;;;;;;;4.93;1.97;;;17.40;64.80;;;;;;2004587;28;20506;-71
2022/05/28 04:53:29;;;;;;;4.07;2.07;;;17.40;64.80;;;;;;2004444;28;20231;-71
2022/05/28 04:54:28;;;;;;;4.63;1.80;;;17.40;64.80;;;;;;2004547;28;20372;-71
2022/05/28 04:55:26;;;;;;;2.23;1.40;;;17.40;64.80;;;;;;2004393;28;20166;-72
2022/05/28 04:56:25;;;;;;;3.77;1.73;;;17.40;64.80;;;;;;2004579;28;20440;-71
2022/05/28 04:57:24;;;;;;;3.67;1.67;;;17.40;64.80;;;;;;2004588;28;20284;-72
2022/05/28 04:58:23;;;;;;;4.40;2.00;;;17.40;64.80;;;;;;2004490;28;20177;-73
2022/05/28 04:59:21;;;;;;;4.28;2.03;;;17.40;64.80;;;;;;2004573;28;20173;-73
2022/05/28 05:00:22;;;;;;;6.27;2.00;;;17.40;64.70;;;;;;2004448;28;20200;-73
2022/05/28 05:01:22;;;;;;;3.65;1.65;;;17.40;64.80;;;;;;2004349;28;20173;-73
2022/05/28 05:02:21;;;;;;;3.40;1.80;;;17.50;64.90;;;;;;2004396;28;20185;-71
2022/05/28 05:03:20;;;;;;;5.20;1.90;;;17.50;64.90;;;;;;2004521;28;20535;-71
2022/05/28 05:04:18;;;;;;;4.90;2.00;;;17.40;64.70;;;;;;2004466;28;20204;-71
2022/05/28 05:05:17;;;;;;;4.93;1.80;;;17.50;64.80;;;;;;2004444;28;20173;-72
2022/05/28 05:06:16;;;;;;;2.50;1.53;;;17.50;64.80;;;;;;2004457;28;20222;-71
2022/05/28 05:07:14;;;;;;;2.93;1.60;;;17.50;64.80;;;;;;2004471;28;20169;-72
2022/05/28 05:08:13;;;;;;;8.27;2.03;;;17.40;64.70;;;;;;2004544;28;20187;-72
2022/05/28 05:09:11;;;;;;;5.63;1.87;;;17.40;64.80;;;;;;2004544;28;20526;-72
2022/05/28 05:10:11;;;;;;;7.57;2.23;;;17.50;64.80;;;;;;2004398;28;20169;-72
2022/05/28 05:11:10;;;;;;;5.47;2.00;;;17.40;64.80;;;;;;2003925;28;20204;-72
2022/05/28 05:12:09;;;;;;;3.05;1.67;;;17.40;64.80;;;;;;1995827;28;20231;-72
2022/05/28 05:13:07;;;;;;;4.47;2.40;;;17.40;64.80;;;;;;2003466;28;20231;-72
2022/05/28 05:14:06;;;;;;;6.00;2.00;;;17.50;64.80;;;;;;2004287;28;20268;-73
2022/05/28 05:15:05;;;;;;;4.97;1.70;;;17.40;64.80;;;;;;2004382;28;20595;-72
2022/05/28 05:16:09;;;;;;;4.00;1.60;;;17.40;64.70;;;;;;2004163;28;20173;-72
2022/05/28 05:17:08;;;;;;;4.55;1.70;;;17.40;64.80;;;;;;2004512;28;20173;-72
2022/05/28 05:18:06;;;;;;;4.10;1.60;;;17.40;64.80;;;;;;2004564;28;20632;-72
2022/05/28 05:19:05;;;;;;;3.00;1.80;;;17.50;64.80;;;;;;2004519;28;20245;-72
2022/05/28 05:20:04;;;;;;;4.03;1.80;;;17.50;64.80;;;;;;2003906;28;20643;-72